sensor_id;sensor_type;location;lat;lon;timestamp;P1;durP1;ratioP1;P2;durP2;ratioP2
53072;SDS011;38955;48.916;2.336;2024-01-30T00:01:03;18.20;;;11.50;;
53072;SDS011;38955;48.916;2.336;2024-01-30T00:03:06;15.57;;;10.55;;
53072;SDS011;38955;48.916;2.336;2024-01-30T00:05:08;19.83;;;11.65;;
53072;SDS011;38955;48.916;2.336;2024-01-30T00:07:11;14.80;;;9.55;;
53072;SDS011;38955;48.916;2.336;2024-01-30T00:09:13;18.30;;;10.00;;
53072;SDS011;38955;48.916;2.336;2024-01-30T00:11:15;13.90;;;9.57;;
53072;SDS011;38955;48.916;2.336;2024-01-30T00:13:17;17.73;;;9.73;;
53072;SDS011;38955;48.916;2.336;2024-01-30T00:15:22;17.08;;;9.25;;
53072;SDS011;38955;48.916;2.336;2024-01-30T00:17:24;11.20;;;8.50;;
53072;SDS011;38955;48.916;2.336;2024-01-30T00:19:27;15.10;;;9.05;;
53072;SDS011;38955;48.916;2.336;2024-01-30T00:21:29;12.77;;;8.20;;
53072;SDS011;38955;48.916;2.336;2024-01-30T00:23:31;11.70;;;8.70;;
53072;SDS011;38955;48.916;2.336;2024-01-30T00:25:33;14.02;;;9.23;;
53072;SDS011;38955;48.916;2.336;2024-01-30T00:27:36;15.45;;;9.10;;
53072;SDS011;38955;48.916;2.336;2024-01-30T00:29:38;12.88;;;8.63;;
53072;SDS011;38955;48.916;2.336;2024-01-30T00:31:42;15.98;;;9.05;;
53072;SDS011;38955;48.916;2.336;2024-01-30T00:33:45;12.70;;;8.85;;
53072;SDS011;38955;48.916;2.336;2024-01-30T00:35:47;13.90;;;7.80;;
53072;SDS011;38955;48.916;2.336;2024-01-30T00:37:49;15.70;;;8.82;;
53072;SDS011;38955;48.916;2.336;2024-01-30T00:39:51;12.07;;;8.80;;
53072;SDS011;38955;48.916;2.336;2024-01-30T00:41:53;11.65;;;8.10;;
53072;SDS011;38955;48.916;2.336;2024-01-30T00:43:55;14.65;;;8.93;;
53072;SDS011;38955;48.916;2.336;2024-01-30T00:45:57;15.57;;;8.88;;
53072;SDS011;38955;48.916;2.336;2024-01-30T00:48:01;12.30;;;8.48;;
53072;SDS011;38955;48.916;2.336;2024-01-30T00:50:03;12.50;;;8.48;;
53072;SDS011;38955;48.916;2.336;2024-01-30T00:52:06;12.27;;;8.48;;
53072;SDS011;38955;48.916;2.336;2024-01-30T00:54:08;14.40;;;8.63;;
53072;SDS011;38955;48.916;2.336;2024-01-30T00:56:12;10.88;;;8.23;;
53072;SDS011;38955;48.916;2.336;2024-01-30T00:58:14;13.45;;;8.57;;
53072;SDS011;38955;48.916;2.336;2024-01-30T01:00:16;12.90;;;8.68;;
53072;SDS011;38955;48.916;2.336;2024-01-30T01:02:19;17.42;;;9.43;;
53072;SDS011;38955;48.916;2.336;2024-01-30T01:04:22;10.18;;;7.43;;
53072;SDS011;38955;48.916;2.336;2024-01-30T01:06:25;15.07;;;8.82;;
53072;SDS011;38955;48.916;2.336;2024-01-30T01:08:27;11.90;;;7.20;;
53072;SDS011;38955;48.916;2.336;2024-01-30T01:10:29;13.73;;;8.23;;
53072;SDS011;38955;48.916;2.336;2024-01-30T01:12:31;12.60;;;7.95;;
53072;SDS011;38955;48.916;2.336;2024-01-30T01:14:33;13.75;;;8.80;;
53072;SDS011;38955;48.916;2.336;2024-01-30T01:16:35;13.27;;;8.65;;
53072;SDS011;38955;48.916;2.336;2024-01-30T01:18:37;13.13;;;7.95;;
53072;SDS011;38955;48.916;2.336;2024-01-30T01:20:41;10.05;;;7.55;;
53072;SDS011;38955;48.916;2.336;2024-01-30T01:22:43;15.98;;;9.00;;
53072;SDS011;38955;48.916;2.336;2024-01-30T01:24:45;15.18;;;8.30;;
53072;SDS011;38955;48.916;2.336;2024-01-30T01:26:47;12.48;;;8.77;;
53072;SDS011;38955;48.916;2.336;2024-01-30T01:28:49;14.80;;;9.18;;
53072;SDS011;38955;48.916;2.336;2024-01-30T01:30:51;11.55;;;9.23;;
53072;SDS011;38955;48.916;2.336;2024-01-30T01:32:53;12.80;;;8.40;;
53072;SDS011;38955;48.916;2.336;2024-01-30T01:35:01;11.73;;;8.50;;
53072;SDS011;38955;48.916;2.336;2024-01-30T01:37:06;10.95;;;7.85;;
53072;SDS011;38955;48.916;2.336;2024-01-30T01:39:09;14.18;;;9.43;;
53072;SDS011;38955;48.916;2.336;2024-01-30T01:41:12;10.55;;;8.27;;
53072;SDS011;38955;48.916;2.336;2024-01-30T01:43:14;11.95;;;8.82;;
53072;SDS011;38955;48.916;2.336;2024-01-30T01:45:16;12.50;;;7.88;;
53072;SDS011;38955;48.916;2.336;2024-01-30T01:47:18;14.88;;;8.48;;
53072;SDS011;38955;48.916;2.336;2024-01-30T01:49:20;12.18;;;8.45;;
53072;SDS011;38955;48.916;2.336;2024-01-30T01:51:26;15.88;;;8.15;;
53072;SDS011;38955;48.916;2.336;2024-01-30T01:53:31;14.83;;;8.63;;
53072;SDS011;38955;48.916;2.336;2024-01-30T01:55:33;12.55;;;7.97;;
53072;SDS011;38955;48.916;2.336;2024-01-30T01:57:37;12.02;;;8.25;;
53072;SDS011;38955;48.916;2.336;2024-01-30T01:59:42;12.32;;;8.40;;
53072;SDS011;38955;48.916;2.336;2024-01-30T02:01:44;13.82;;;8.55;;
53072;SDS011;38955;48.916;2.336;2024-01-30T02:03:47;11.85;;;7.97;;
53072;SDS011;38955;48.916;2.336;2024-01-30T02:05:50;12.43;;;8.57;;
53072;SDS011;38955;48.916;2.336;2024-01-30T02:07:53;14.02;;;9.02;;
53072;SDS011;38955;48.916;2.336;2024-01-30T02:09:57;14.63;;;8.98;;
53072;SDS011;38955;48.916;2.336;2024-01-30T02:11:59;13.65;;;8.00;;
53072;SDS011;38955;48.916;2.336;2024-01-30T02:14:02;12.05;;;8.57;;
53072;SDS011;38955;48.916;2.336;2024-01-30T02:16:05;15.15;;;8.95;;
53072;SDS011;38955;48.916;2.336;2024-01-30T02:18:07;13.35;;;9.40;;
53072;SDS011;38955;48.916;2.336;2024-01-30T02:20:10;13.68;;;9.77;;
53072;SDS011;38955;48.916;2.336;2024-01-30T02:22:14;12.32;;;8.50;;
53072;SDS011;38955;48.916;2.336;2024-01-30T02:24:17;13.55;;;8.93;;
53072;SDS011;38955;48.916;2.336;2024-01-30T02:26:19;12.43;;;8.27;;
53072;SDS011;38955;48.916;2.336;2024-01-30T02:28:21;17.50;;;8.75;;
53072;SDS011;38955;48.916;2.336;2024-01-30T02:30:23;14.55;;;8.88;;
53072;SDS011;38955;48.916;2.336;2024-01-30T02:32:25;15.30;;;8.45;;
53072;SDS011;38955;48.916;2.336;2024-01-30T02:34:28;12.30;;;8.07;;
53072;SDS011;38955;48.916;2.336;2024-01-30T02:36:30;18.50;;;8.60;;
53072;SDS011;38955;48.916;2.336;2024-01-30T02:38:33;9.48;;;8.10;;
53072;SDS011;38955;48.916;2.336;2024-01-30T02:40:35;13.63;;;7.95;;
53072;SDS011;38955;48.916;2.336;2024-01-30T02:42:37;12.95;;;8.30;;
53072;SDS011;38955;48.916;2.336;2024-01-30T02:44:41;13.32;;;7.65;;
53072;SDS011;38955;48.916;2.336;2024-01-30T02:46:43;12.63;;;7.13;;
53072;SDS011;38955;48.916;2.336;2024-01-30T02:48:44;11.20;;;7.72;;
53072;SDS011;38955;48.916;2.336;2024-01-30T02:50:47;14.02;;;8.15;;
53072;SDS011;38955;48.916;2.336;2024-01-30T02:52:49;11.60;;;7.50;;
53072;SDS011;38955;48.916;2.336;2024-01-30T02:54:52;11.73;;;7.45;;
53072;SDS011;38955;48.916;2.336;2024-01-30T02:56:54;15.15;;;7.13;;
53072;SDS011;38955;48.916;2.336;2024-01-30T02:58:56;10.98;;;6.20;;
53072;SDS011;38955;48.916;2.336;2024-01-30T03:00:58;9.93;;;6.13;;
53072;SDS011;38955;48.916;2.336;2024-01-30T03:03:01;9.85;;;6.28;;
53072;SDS011;38955;48.916;2.336;2024-01-30T03:05:04;10.48;;;6.97;;
53072;SDS011;38955;48.916;2.336;2024-01-30T03:07:07;10.45;;;6.53;;
53072;SDS011;38955;48.916;2.336;2024-01-30T03:09:09;11.07;;;6.00;;
53072;SDS011;38955;48.916;2.336;2024-01-30T03:11:12;9.70;;;5.68;;
53072;SDS011;38955;48.916;2.336;2024-01-30T03:13:14;10.43;;;6.15;;
53072;SDS011;38955;48.916;2.336;2024-01-30T03:15:17;11.95;;;6.47;;
53072;SDS011;38955;48.916;2.336;2024-01-30T03:17:19;14.90;;;6.13;;
53072;SDS011;38955;48.916;2.336;2024-01-30T03:19:21;8.18;;;4.85;;
53072;SDS011;38955;48.916;2.336;2024-01-30T03:21:23;10.63;;;5.03;;
53072;SDS011;38955;48.916;2.336;2024-01-30T03:23:25;10.30;;;5.85;;
53072;SDS011;38955;48.916;2.336;2024-01-30T03:25:27;8.65;;;5.32;;
53072;SDS011;38955;48.916;2.336;2024-01-30T03:27:31;10.20;;;5.30;;
53072;SDS011;38955;48.916;2.336;2024-01-30T03:29:33;13.95;;;5.50;;
53072;SDS011;38955;48.916;2.336;2024-01-30T03:31:35;8.13;;;4.72;;
53072;SDS011;38955;48.916;2.336;2024-01-30T03:33:37;10.70;;;5.65;;
53072;SDS011;38955;48.916;2.336;2024-01-30T03:35:40;8.25;;;4.90;;
53072;SDS011;38955;48.916;2.336;2024-01-30T03:37:42;10.65;;;5.60;;
53072;SDS011;38955;48.916;2.336;2024-01-30T03:39:45;7.55;;;5.43;;
53072;SDS011;38955;48.916;2.336;2024-01-30T03:41:47;11.40;;;5.40;;
53072;SDS011;38955;48.916;2.336;2024-01-30T03:43:50;8.07;;;5.32;;
53072;SDS011;38955;48.916;2.336;2024-01-30T03:45:52;9.25;;;5.63;;
53072;SDS011;38955;48.916;2.336;2024-01-30T03:47:54;11.95;;;6.13;;
53072;SDS011;38955;48.916;2.336;2024-01-30T03:50:00;6.97;;;5.35;;
53072;SDS011;38955;48.916;2.336;2024-01-30T03:52:02;10.82;;;6.20;;
53072;SDS011;38955;48.916;2.336;2024-01-30T03:54:05;10.50;;;6.40;;
53072;SDS011;38955;48.916;2.336;2024-01-30T03:56:07;15.05;;;5.38;;
53072;SDS011;38955;48.916;2.336;2024-01-30T03:58:09;8.02;;;4.97;;
53072;SDS011;38955;48.916;2.336;2024-01-30T04:00:14;9.55;;;5.40;;
53072;SDS011;38955;48.916;2.336;2024-01-30T04:02:16;9.23;;;5.18;;
53072;SDS011;38955;48.916;2.336;2024-01-30T04:04:19;13.40;;;5.70;;
53072;SDS011;38955;48.916;2.336;2024-01-30T04:06:22;7.72;;;5.20;;
53072;SDS011;38955;48.916;2.336;2024-01-30T04:08:24;8.85;;;4.65;;
53072;SDS011;38955;48.916;2.336;2024-01-30T04:10:26;11.65;;;5.70;;
53072;SDS011;38955;48.916;2.336;2024-01-30T04:12:28;9.10;;;5.13;;
53072;SDS011;38955;48.916;2.336;2024-01-30T04:14:30;9.52;;;5.28;;
53072;SDS011;38955;48.916;2.336;2024-01-30T04:16:34;9.10;;;4.63;;
53072;SDS011;38955;48.916;2.336;2024-01-30T04:18:36;14.45;;;5.57;;
53072;SDS011;38955;48.916;2.336;2024-01-30T04:20:38;8.05;;;5.13;;
53072;SDS011;38955;48.916;2.336;2024-01-30T04:22:40;8.32;;;4.68;;
53072;SDS011;38955;48.916;2.336;2024-01-30T04:24:43;9.65;;;4.53;;
53072;SDS011;38955;48.916;2.336;2024-01-30T04:26:45;9.77;;;4.75;;
53072;SDS011;38955;48.916;2.336;2024-01-30T04:28:47;11.40;;;5.13;;
53072;SDS011;38955;48.916;2.336;2024-01-30T04:30:49;8.13;;;4.97;;
53072;SDS011;38955;48.916;2.336;2024-01-30T04:32:52;10.18;;;4.90;;
53072;SDS011;38955;48.916;2.336;2024-01-30T04:34:55;13.95;;;5.95;;
53072;SDS011;38955;48.916;2.336;2024-01-30T04:36:57;7.63;;;4.97;;
53072;SDS011;38955;48.916;2.336;2024-01-30T04:38:59;7.55;;;4.95;;
53072;SDS011;38955;48.916;2.336;2024-01-30T04:41:01;10.30;;;4.95;;
53072;SDS011;38955;48.916;2.336;2024-01-30T04:43:03;9.38;;;5.50;;
53072;SDS011;38955;48.916;2.336;2024-01-30T04:45:06;9.75;;;5.20;;
53072;SDS011;38955;48.916;2.336;2024-01-30T04:47:08;9.27;;;5.05;;
53072;SDS011;38955;48.916;2.336;2024-01-30T04:49:14;6.15;;;3.72;;
53072;SDS011;38955;48.916;2.336;2024-01-30T04:51:16;7.93;;;5.45;;
53072;SDS011;38955;48.916;2.336;2024-01-30T04:53:18;11.75;;;4.82;;
53072;SDS011;38955;48.916;2.336;2024-01-30T04:55:20;6.93;;;4.53;;
53072;SDS011;38955;48.916;2.336;2024-01-30T04:57:24;10.10;;;5.38;;
53072;SDS011;38955;48.916;2.336;2024-01-30T04:59:26;13.65;;;5.50;;
53072;SDS011;38955;48.916;2.336;2024-01-30T05:01:28;7.97;;;5.07;;
53072;SDS011;38955;48.916;2.336;2024-01-30T05:03:32;8.68;;;4.72;;
53072;SDS011;38955;48.916;2.336;2024-01-30T05:07:40;7.95;;;5.13;;
53072;SDS011;38955;48.916;2.336;2024-01-30T05:09:43;11.18;;;5.43;;
53072;SDS011;38955;48.916;2.336;2024-01-30T05:11:45;9.68;;;5.18;;
53072;SDS011;38955;48.916;2.336;2024-01-30T05:13:47;6.32;;;4.53;;
53072;SDS011;38955;48.916;2.336;2024-01-30T05:15:49;15.45;;;5.38;;
53072;SDS011;38955;48.916;2.336;2024-01-30T05:17:51;8.80;;;5.22;;
53072;SDS011;38955;48.916;2.336;2024-01-30T05:19:53;11.82;;;5.22;;
53072;SDS011;38955;48.916;2.336;2024-01-30T05:21:57;8.98;;;4.50;;
53072;SDS011;38955;48.916;2.336;2024-01-30T05:23:59;8.77;;;4.65;;
53072;SDS011;38955;48.916;2.336;2024-01-30T05:26:01;13.52;;;5.07;;
53072;SDS011;38955;48.916;2.336;2024-01-30T05:28:04;9.38;;;5.03;;
53072;SDS011;38955;48.916;2.336;2024-01-30T05:30:06;10.70;;;4.75;;
53072;SDS011;38955;48.916;2.336;2024-01-30T05:32:09;12.93;;;4.78;;
53072;SDS011;38955;48.916;2.336;2024-01-30T05:34:13;9.35;;;4.65;;
53072;SDS011;38955;48.916;2.336;2024-01-30T05:36:15;11.57;;;4.93;;
53072;SDS011;38955;48.916;2.336;2024-01-30T05:38:19;13.13;;;4.80;;
53072;SDS011;38955;48.916;2.336;2024-01-30T05:40:21;14.38;;;5.50;;
53072;SDS011;38955;48.916;2.336;2024-01-30T05:42:23;11.02;;;5.38;;
53072;SDS011;38955;48.916;2.336;2024-01-30T05:44:25;15.27;;;5.20;;
53072;SDS011;38955;48.916;2.336;2024-01-30T05:46:27;13.85;;;6.30;;
53072;SDS011;38955;48.916;2.336;2024-01-30T05:48:29;11.10;;;5.30;;
53072;SDS011;38955;48.916;2.336;2024-01-30T05:50:32;11.77;;;5.97;;
53072;SDS011;38955;48.916;2.336;2024-01-30T05:52:34;9.20;;;5.32;;
53072;SDS011;38955;48.916;2.336;2024-01-30T05:54:38;15.38;;;5.70;;
53072;SDS011;38955;48.916;2.336;2024-01-30T05:56:40;7.80;;;4.30;;
53072;SDS011;38955;48.916;2.336;2024-01-30T05:58:43;10.90;;;5.10;;
53072;SDS011;38955;48.916;2.336;2024-01-30T06:00:45;14.13;;;4.80;;
53072;SDS011;38955;48.916;2.336;2024-01-30T06:02:47;10.80;;;5.03;;
53072;SDS011;38955;48.916;2.336;2024-01-30T06:04:49;9.18;;;4.82;;
53072;SDS011;38955;48.916;2.336;2024-01-30T06:06:51;15.93;;;4.82;;
53072;SDS011;38955;48.916;2.336;2024-01-30T06:08:54;8.88;;;4.85;;
53072;SDS011;38955;48.916;2.336;2024-01-30T06:10:59;10.68;;;5.07;;
53072;SDS011;38955;48.916;2.336;2024-01-30T06:13:02;8.82;;;4.68;;
53072;SDS011;38955;48.916;2.336;2024-01-30T06:15:04;11.65;;;4.68;;
53072;SDS011;38955;48.916;2.336;2024-01-30T06:17:08;12.57;;;4.90;;
53072;SDS011;38955;48.916;2.336;2024-01-30T06:19:10;13.80;;;5.10;;
53072;SDS011;38955;48.916;2.336;2024-01-30T06:21:14;8.77;;;4.43;;
53072;SDS011;38955;48.916;2.336;2024-01-30T06:23:16;10.35;;;4.45;;
53072;SDS011;38955;48.916;2.336;2024-01-30T06:25:19;14.43;;;4.93;;
53072;SDS011;38955;48.916;2.336;2024-01-30T06:27:22;14.35;;;4.70;;
53072;SDS011;38955;48.916;2.336;2024-01-30T06:29:25;9.65;;;4.95;;
53072;SDS011;38955;48.916;2.336;2024-01-30T06:31:28;12.82;;;4.65;;
53072;SDS011;38955;48.916;2.336;2024-01-30T06:33:30;9.10;;;4.25;;
53072;SDS011;38955;48.916;2.336;2024-01-30T06:35:32;10.48;;;4.95;;
53072;SDS011;38955;48.916;2.336;2024-01-30T06:37:36;9.57;;;4.68;;
53072;SDS011;38955;48.916;2.336;2024-01-30T06:39:38;8.23;;;4.60;;
53072;SDS011;38955;48.916;2.336;2024-01-30T06:41:41;12.70;;;4.75;;
53072;SDS011;38955;48.916;2.336;2024-01-30T06:43:44;9.23;;;4.93;;
53072;SDS011;38955;48.916;2.336;2024-01-30T06:45:47;14.38;;;5.05;;
53072;SDS011;38955;48.916;2.336;2024-01-30T06:47:49;11.20;;;4.53;;
53072;SDS011;38955;48.916;2.336;2024-01-30T06:49:51;10.15;;;4.07;;
53072;SDS011;38955;48.916;2.336;2024-01-30T06:51:53;11.05;;;4.80;;
53072;SDS011;38955;48.916;2.336;2024-01-30T06:53:55;8.27;;;4.40;;
53072;SDS011;38955;48.916;2.336;2024-01-30T06:55:57;13.18;;;3.78;;
53072;SDS011;38955;48.916;2.336;2024-01-30T06:58:00;12.27;;;4.38;;
53072;SDS011;38955;48.916;2.336;2024-01-30T07:00:03;13.00;;;4.97;;
53072;SDS011;38955;48.916;2.336;2024-01-30T07:02:06;14.88;;;5.00;;
53072;SDS011;38955;48.916;2.336;2024-01-30T07:04:09;9.73;;;4.20;;
53072;SDS011;38955;48.916;2.336;2024-01-30T07:06:11;16.73;;;5.20;;
53072;SDS011;38955;48.916;2.336;2024-01-30T07:08:14;13.95;;;4.90;;
53072;SDS011;38955;48.916;2.336;2024-01-30T07:12:20;11.88;;;4.78;;
53072;SDS011;38955;48.916;2.336;2024-01-30T07:14:22;12.30;;;5.60;;
53072;SDS011;38955;48.916;2.336;2024-01-30T07:16:25;16.33;;;5.88;;
53072;SDS011;38955;48.916;2.336;2024-01-30T07:18:28;10.85;;;3.88;;
53072;SDS011;38955;48.916;2.336;2024-01-30T07:20:30;9.00;;;4.97;;
53072;SDS011;38955;48.916;2.336;2024-01-30T07:22:33;10.55;;;5.07;;
53072;SDS011;38955;48.916;2.336;2024-01-30T07:24:35;16.88;;;4.97;;
53072;SDS011;38955;48.916;2.336;2024-01-30T07:26:37;12.27;;;4.90;;
53072;SDS011;38955;48.916;2.336;2024-01-30T07:28:39;14.05;;;4.90;;
53072;SDS011;38955;48.916;2.336;2024-01-30T07:30:43;12.80;;;6.45;;
53072;SDS011;38955;48.916;2.336;2024-01-30T07:32:47;11.13;;;5.55;;
53072;SDS011;38955;48.916;2.336;2024-01-30T07:34:49;10.98;;;6.22;;
53072;SDS011;38955;48.916;2.336;2024-01-30T07:37:07;15.05;;;6.18;;
53072;SDS011;38955;48.916;2.336;2024-01-30T07:39:10;17.10;;;6.30;;
53072;SDS011;38955;48.916;2.336;2024-01-30T07:41:12;11.55;;;5.88;;
53072;SDS011;38955;48.916;2.336;2024-01-30T07:43:14;16.10;;;6.10;;
53072;SDS011;38955;48.916;2.336;2024-01-30T07:45:16;15.98;;;6.53;;
53072;SDS011;38955;48.916;2.336;2024-01-30T07:47:22;15.60;;;6.55;;
53072;SDS011;38955;48.916;2.336;2024-01-30T07:49:26;13.68;;;5.40;;
53072;SDS011;38955;48.916;2.336;2024-01-30T07:51:28;15.52;;;6.03;;
53072;SDS011;38955;48.916;2.336;2024-01-30T07:53:33;15.50;;;6.90;;
53072;SDS011;38955;48.916;2.336;2024-01-30T07:55:35;17.35;;;6.60;;
53072;SDS011;38955;48.916;2.336;2024-01-30T07:57:38;15.52;;;6.13;;
53072;SDS011;38955;48.916;2.336;2024-01-30T07:59:41;23.85;;;6.95;;
53072;SDS011;38955;48.916;2.336;2024-01-30T08:01:43;19.42;;;7.07;;
53072;SDS011;38955;48.916;2.336;2024-01-30T08:03:45;12.90;;;6.53;;
53072;SDS011;38955;48.916;2.336;2024-01-30T08:05:49;16.70;;;6.50;;
53072;SDS011;38955;48.916;2.336;2024-01-30T08:07:51;11.85;;;5.57;;
53072;SDS011;38955;48.916;2.336;2024-01-30T08:09:53;17.08;;;6.85;;
53072;SDS011;38955;48.916;2.336;2024-01-30T08:11:56;15.75;;;6.30;;
53072;SDS011;38955;48.916;2.336;2024-01-30T08:13:58;17.52;;;6.80;;
53072;SDS011;38955;48.916;2.336;2024-01-30T08:16:00;10.73;;;6.43;;
53072;SDS011;38955;48.916;2.336;2024-01-30T08:18:02;15.75;;;6.38;;
53072;SDS011;38955;48.916;2.336;2024-01-30T08:20:05;17.60;;;6.93;;
53072;SDS011;38955;48.916;2.336;2024-01-30T08:22:11;18.23;;;7.40;;
53072;SDS011;38955;48.916;2.336;2024-01-30T08:24:14;16.83;;;6.78;;
53072;SDS011;38955;48.916;2.336;2024-01-30T08:26:16;19.05;;;7.20;;
53072;SDS011;38955;48.916;2.336;2024-01-30T08:28:18;17.05;;;6.00;;
53072;SDS011;38955;48.916;2.336;2024-01-30T08:30:22;20.55;;;7.07;;
53072;SDS011;38955;48.916;2.336;2024-01-30T08:32:27;19.45;;;8.00;;
53072;SDS011;38955;48.916;2.336;2024-01-30T08:34:29;12.05;;;6.15;;
53072;SDS011;38955;48.916;2.336;2024-01-30T08:36:31;19.05;;;7.50;;
53072;SDS011;38955;48.916;2.336;2024-01-30T08:38:34;20.48;;;7.00;;
53072;SDS011;38955;48.916;2.336;2024-01-30T08:40:37;20.42;;;7.53;;
53072;SDS011;38955;48.916;2.336;2024-01-30T08:42:39;14.50;;;6.97;;
53072;SDS011;38955;48.916;2.336;2024-01-30T08:44:41;21.52;;;7.93;;
53072;SDS011;38955;48.916;2.336;2024-01-30T08:46:43;14.80;;;6.72;;
53072;SDS011;38955;48.916;2.336;2024-01-30T08:48:46;15.25;;;6.50;;
53072;SDS011;38955;48.916;2.336;2024-01-30T08:50:49;21.02;;;6.97;;
53072;SDS011;38955;48.916;2.336;2024-01-30T08:52:51;25.90;;;7.45;;
53072;SDS011;38955;48.916;2.336;2024-01-30T08:54:55;22.52;;;7.53;;
53072;SDS011;38955;48.916;2.336;2024-01-30T08:56:57;19.17;;;6.45;;
53072;SDS011;38955;48.916;2.336;2024-01-30T08:58:59;23.40;;;8.23;;
53072;SDS011;38955;48.916;2.336;2024-01-30T09:01:01;16.75;;;7.43;;
53072;SDS011;38955;48.916;2.336;2024-01-30T09:03:05;21.15;;;7.47;;
53072;SDS011;38955;48.916;2.336;2024-01-30T09:05:07;16.73;;;7.07;;
53072;SDS011;38955;48.916;2.336;2024-01-30T09:07:09;21.00;;;7.18;;
53072;SDS011;38955;48.916;2.336;2024-01-30T09:09:13;21.65;;;7.32;;
53072;SDS011;38955;48.916;2.336;2024-01-30T09:11:18;19.35;;;7.43;;
53072;SDS011;38955;48.916;2.336;2024-01-30T09:13:20;17.80;;;6.63;;
53072;SDS011;38955;48.916;2.336;2024-01-30T09:15:22;19.70;;;6.53;;
53072;SDS011;38955;48.916;2.336;2024-01-30T09:17:27;21.45;;;7.00;;
53072;SDS011;38955;48.916;2.336;2024-01-30T09:19:29;17.60;;;6.93;;
53072;SDS011;38955;48.916;2.336;2024-01-30T09:21:31;24.92;;;7.03;;
53072;SDS011;38955;48.916;2.336;2024-01-30T09:23:33;19.65;;;6.90;;
53072;SDS011;38955;48.916;2.336;2024-01-30T09:25:36;14.63;;;6.50;;
53072;SDS011;38955;48.916;2.336;2024-01-30T09:27:40;20.77;;;7.20;;
53072;SDS011;38955;48.916;2.336;2024-01-30T09:29:42;20.98;;;7.60;;
53072;SDS011;38955;48.916;2.336;2024-01-30T09:31:47;17.20;;;6.38;;
53072;SDS011;38955;48.916;2.336;2024-01-30T09:33:50;17.38;;;7.75;;
53072;SDS011;38955;48.916;2.336;2024-01-30T09:35:55;18.05;;;6.75;;
53072;SDS011;38955;48.916;2.336;2024-01-30T09:37:57;14.35;;;6.70;;
53072;SDS011;38955;48.916;2.336;2024-01-30T09:39:59;14.95;;;6.13;;
53072;SDS011;38955;48.916;2.336;2024-01-30T09:42:02;17.13;;;6.68;;
53072;SDS011;38955;48.916;2.336;2024-01-30T09:44:11;18.98;;;5.90;;
53072;SDS011;38955;48.916;2.336;2024-01-30T09:46:13;13.52;;;5.93;;
53072;SDS011;38955;48.916;2.336;2024-01-30T09:48:17;19.83;;;6.45;;
53072;SDS011;38955;48.916;2.336;2024-01-30T09:50:20;14.77;;;6.43;;
53072;SDS011;38955;48.916;2.336;2024-01-30T09:52:22;12.57;;;6.28;;
53072;SDS011;38955;48.916;2.336;2024-01-30T09:54:24;13.27;;;6.35;;
53072;SDS011;38955;48.916;2.336;2024-01-30T09:56:26;25.80;;;7.32;;
53072;SDS011;38955;48.916;2.336;2024-01-30T09:58:28;14.57;;;6.60;;
53072;SDS011;38955;48.916;2.336;2024-01-30T10:00:32;15.20;;;6.45;;
53072;SDS011;38955;48.916;2.336;2024-01-30T10:02:34;17.58;;;6.15;;
53072;SDS011;38955;48.916;2.336;2024-01-30T10:04:36;13.25;;;6.68;;
53072;SDS011;38955;48.916;2.336;2024-01-30T10:06:38;15.43;;;6.78;;
53072;SDS011;38955;48.916;2.336;2024-01-30T10:08:42;17.60;;;6.60;;
53072;SDS011;38955;48.916;2.336;2024-01-30T10:10:45;12.18;;;6.03;;
53072;SDS011;38955;48.916;2.336;2024-01-30T10:12:48;10.52;;;5.95;;
53072;SDS011;38955;48.916;2.336;2024-01-30T10:14:50;14.35;;;5.43;;
53072;SDS011;38955;48.916;2.336;2024-01-30T10:16:54;16.02;;;6.22;;
53072;SDS011;38955;48.916;2.336;2024-01-30T10:18:57;11.73;;;6.20;;
53072;SDS011;38955;48.916;2.336;2024-01-30T10:20:59;16.77;;;5.07;;
53072;SDS011;38955;48.916;2.336;2024-01-30T10:23:01;11.75;;;4.28;;
53072;SDS011;38955;48.916;2.336;2024-01-30T10:25:04;13.05;;;4.75;;
53072;SDS011;38955;48.916;2.336;2024-01-30T10:27:07;11.98;;;5.05;;
53072;SDS011;38955;48.916;2.336;2024-01-30T10:29:09;19.13;;;5.60;;
53072;SDS011;38955;48.916;2.336;2024-01-30T10:31:15;12.90;;;4.78;;
53072;SDS011;38955;48.916;2.336;2024-01-30T10:33:19;12.52;;;4.97;;
53072;SDS011;38955;48.916;2.336;2024-01-30T10:35:21;8.75;;;4.55;;
53072;SDS011;38955;48.916;2.336;2024-01-30T10:37:24;11.95;;;4.65;;
53072;SDS011;38955;48.916;2.336;2024-01-30T10:39:28;16.33;;;5.47;;
53072;SDS011;38955;48.916;2.336;2024-01-30T10:41:35;16.05;;;4.57;;
53072;SDS011;38955;48.916;2.336;2024-01-30T10:43:42;18.05;;;4.75;;
53072;SDS011;38955;48.916;2.336;2024-01-30T10:45:51;12.35;;;4.25;;
53072;SDS011;38955;48.916;2.336;2024-01-30T10:47:56;12.82;;;4.53;;
53072;SDS011;38955;48.916;2.336;2024-01-30T10:52:05;9.50;;;3.85;;
53072;SDS011;38955;48.916;2.336;2024-01-30T10:54:09;17.00;;;4.97;;
53072;SDS011;38955;48.916;2.336;2024-01-30T10:56:12;14.77;;;4.82;;
53072;SDS011;38955;48.916;2.336;2024-01-30T10:58:17;13.93;;;4.40;;
53072;SDS011;38955;48.916;2.336;2024-01-30T11:00:20;14.88;;;5.07;;
53072;SDS011;38955;48.916;2.336;2024-01-30T11:02:25;18.60;;;5.10;;
53072;SDS011;38955;48.916;2.336;2024-01-30T11:04:35;15.82;;;4.50;;
53072;SDS011;38955;48.916;2.336;2024-01-30T11:06:41;10.05;;;4.40;;
53072;SDS011;38955;48.916;2.336;2024-01-30T11:08:44;11.45;;;4.43;;
53072;SDS011;38955;48.916;2.336;2024-01-30T11:10:47;10.57;;;3.92;;
53072;SDS011;38955;48.916;2.336;2024-01-30T11:12:50;11.38;;;4.25;;
53072;SDS011;38955;48.916;2.336;2024-01-30T11:15:01;11.00;;;4.70;;
53072;SDS011;38955;48.916;2.336;2024-01-30T11:17:06;12.85;;;4.75;;
53072;SDS011;38955;48.916;2.336;2024-01-30T11:19:11;18.60;;;6.15;;
53072;SDS011;38955;48.916;2.336;2024-01-30T11:21:13;17.33;;;5.82;;
53072;SDS011;38955;48.916;2.336;2024-01-30T11:23:17;14.65;;;5.72;;
53072;SDS011;38955;48.916;2.336;2024-01-30T11:25:20;17.90;;;5.35;;
53072;SDS011;38955;48.916;2.336;2024-01-30T11:29:32;13.13;;;4.72;;
53072;SDS011;38955;48.916;2.336;2024-01-30T11:31:36;11.95;;;4.90;;
53072;SDS011;38955;48.916;2.336;2024-01-30T11:33:39;15.20;;;4.35;;
53072;SDS011;38955;48.916;2.336;2024-01-30T11:35:41;17.05;;;4.03;;
53072;SDS011;38955;48.916;2.336;2024-01-30T11:37:45;10.03;;;4.00;;
53072;SDS011;38955;48.916;2.336;2024-01-30T11:39:52;14.50;;;4.40;;
53072;SDS011;38955;48.916;2.336;2024-01-30T11:41:55;18.35;;;5.00;;
53072;SDS011;38955;48.916;2.336;2024-01-30T11:43:58;10.90;;;4.25;;
53072;SDS011;38955;48.916;2.336;2024-01-30T11:46:00;10.80;;;4.22;;
53072;SDS011;38955;48.916;2.336;2024-01-30T11:48:03;9.60;;;3.47;;
53072;SDS011;38955;48.916;2.336;2024-01-30T11:50:06;12.70;;;4.22;;
53072;SDS011;38955;48.916;2.336;2024-01-30T11:52:09;11.70;;;3.88;;
53072;SDS011;38955;48.916;2.336;2024-01-30T11:54:11;10.82;;;4.03;;
53072;SDS011;38955;48.916;2.336;2024-01-30T11:56:15;9.35;;;3.80;;
53072;SDS011;38955;48.916;2.336;2024-01-30T11:58:17;12.38;;;4.07;;
53072;SDS011;38955;48.916;2.336;2024-01-30T12:00:19;14.27;;;4.72;;
53072;SDS011;38955;48.916;2.336;2024-01-30T12:02:22;11.02;;;3.80;;
53072;SDS011;38955;48.916;2.336;2024-01-30T12:04:27;13.75;;;3.53;;
53072;SDS011;38955;48.916;2.336;2024-01-30T12:06:29;9.63;;;3.42;;
53072;SDS011;38955;48.916;2.336;2024-01-30T12:08:32;11.35;;;4.00;;
53072;SDS011;38955;48.916;2.336;2024-01-30T12:10:34;16.58;;;4.40;;
53072;SDS011;38955;48.916;2.336;2024-01-30T12:12:37;6.95;;;3.30;;
53072;SDS011;38955;48.916;2.336;2024-01-30T12:14:40;11.63;;;3.37;;
53072;SDS011;38955;48.916;2.336;2024-01-30T12:16:43;11.38;;;2.88;;
53072;SDS011;38955;48.916;2.336;2024-01-30T12:18:45;10.35;;;3.15;;